sensor_id;sensor_type;location;lat;lon;timestamp;P1;P2;P0
28647;PMS5003;17137;51.494;-0.262;2023-12-07T00:00:21;20;17;
28647;PMS5003;17137;51.494;-0.262;2023-12-07T00:00:51;20;17;
28647;PMS5003;17137;51.494;-0.262;2023-12-07T00:01:21;20;17;
28647;PMS5003;17137;51.494;-0.262;2023-12-07T00:01:51;20;18;
28647;PMS5003;17137;51.494;-0.262;2023-12-07T00:02:22;20;18;
28647;PMS5003;17137;51.494;-0.262;2023-12-07T00:02:52;20;18;
28647;PMS5003;17137;51.494;-0.262;2023-12-07T00:03:22;21;18;
28647;PMS5003;17137;51.494;-0.262;2023-12-07T00:03:52;21;18;
28647;PMS5003;17137;51.494;-0.262;2023-12-07T00:04:22;21;18;
28647;PMS5003;17137;51.494;-0.262;2023-12-07T00:04:52;21;18;
28647;PMS5003;17137;51.494;-0.262;2023-12-07T00:05:23;21;18;
28647;PMS5003;17137;51.494;-0.262;2023-12-07T00:05:53;21;18;
28647;PMS5003;17137;51.494;-0.262;2023-12-07T00:06:23;21;18;
28647;PMS5003;17137;51.494;-0.262;2023-12-07T00:06:54;21;18;
28647;PMS5003;17137;51.494;-0.262;2023-12-07T00:07:24;21;18;
28647;PMS5003;17137;51.494;-0.262;2023-12-07T00:07:54;21;18;
28647;PMS5003;17137;51.494;-0.262;2023-12-07T00:08:24;21;18;
28647;PMS5003;17137;51.494;-0.262;2023-12-07T00:08:54;21;18;
28647;PMS5003;17137;51.494;-0.262;2023-12-07T00:09:25;21;18;
28647;PMS5003;17137;51.494;-0.262;2023-12-07T00:09:55;21;18;
28647;PMS5003;17137;51.494;-0.262;2023-12-07T00:10:25;21;18;
28647;PMS5003;17137;51.494;-0.262;2023-12-07T00:10:55;19;18;
28647;PMS5003;17137;51.494;-0.262;2023-12-07T00:11:25;19;18;
28647;PMS5003;17137;51.494;-0.262;2023-12-07T00:11:56;19;18;
28647;PMS5003;17137;51.494;-0.262;2023-12-07T00:12:26;19;18;
28647;PMS5003;17137;51.494;-0.262;2023-12-07T00:12:56;19;18;
28647;PMS5003;17137;51.494;-0.262;2023-12-07T00:13:26;19;18;
28647;PMS5003;17137;51.494;-0.262;2023-12-07T00:13:57;19;18;
28647;PMS5003;17137;51.494;-0.262;2023-12-07T00:14:27;19;18;
28647;PMS5003;17137;51.494;-0.262;2023-12-07T00:14:57;19;18;
28647;PMS5003;17137;51.494;-0.262;2023-12-07T00:15:27;20;19;
28647;PMS5003;17137;51.494;-0.262;2023-12-07T00:15:58;20;19;
28647;PMS5003;17137;51.494;-0.262;2023-12-07T00:16:28;20;19;
28647;PMS5003;17137;51.494;-0.262;2023-12-07T00:16:58;20;19;
28647;PMS5003;17137;51.494;-0.262;2023-12-07T00:17:28;20;19;
28647;PMS5003;17137;51.494;-0.262;2023-12-07T00:17:58;20;19;
28647;PMS5003;17137;51.494;-0.262;2023-12-07T00:18:29;19;19;
28647;PMS5003;17137;51.494;-0.262;2023-12-07T00:18:59;19;19;
28647;PMS5003;17137;51.494;-0.262;2023-12-07T00:19:29;19;19;
28647;PMS5003;17137;51.494;-0.262;2023-12-07T00:19:59;19;19;
28647;PMS5003;17137;51.494;-0.262;2023-12-07T00:20:30;19;19;
28647;PMS5003;17137;51.494;-0.262;2023-12-07T00:21:00;19;19;
28647;PMS5003;17137;51.494;-0.262;2023-12-07T00:21:31;19;19;
28647;PMS5003;17137;51.494;-0.262;2023-12-07T00:22:01;19;19;
28647;PMS5003;17137;51.494;-0.262;2023-12-07T00:22:31;19;19;
28647;PMS5003;17137;51.494;-0.262;2023-12-07T00:23:02;19;19;
28647;PMS5003;17137;51.494;-0.262;2023-12-07T00:23:32;19;19;
28647;PMS5003;17137;51.494;-0.262;2023-12-07T00:24:02;19;19;
28647;PMS5003;17137;51.494;-0.262;2023-12-07T00:24:33;19;19;
28647;PMS5003;17137;51.494;-0.262;2023-12-07T00:25:04;19;19;
28647;PMS5003;17137;51.494;-0.262;2023-12-07T00:25:35;19;19;
28647;PMS5003;17137;51.494;-0.262;2023-12-07T00:26:05;19;19;
28647;PMS5003;17137;51.494;-0.262;2023-12-07T00:26:35;19;19;
28647;PMS5003;17137;51.494;-0.262;2023-12-07T00:27:06;19;19;
28647;PMS5003;17137;51.494;-0.262;2023-12-07T00:27:36;20;19;
28647;PMS5003;17137;51.494;-0.262;2023-12-07T00:28:06;20;19;
28647;PMS5003;17137;51.494;-0.262;2023-12-07T00:28:36;20;19;
28647;PMS5003;17137;51.494;-0.262;2023-12-07T00:29:06;19;18;
28647;PMS5003;17137;51.494;-0.262;2023-12-07T00:29:37;19;18;
28647;PMS5003;17137;51.494;-0.262;2023-12-07T00:30:08;19;18;
28647;PMS5003;17137;51.494;-0.262;2023-12-07T00:30:39;20;18;
28647;PMS5003;17137;51.494;-0.262;2023-12-07T00:31:09;20;18;
28647;PMS5003;17137;51.494;-0.262;2023-12-07T00:31:39;20;18;
28647;PMS5003;17137;51.494;-0.262;2023-12-07T00:32:10;20;18;
28647;PMS5003;17137;51.494;-0.262;2023-12-07T00:32:40;20;18;
28647;PMS5003;17137;51.494;-0.262;2023-12-07T00:33:10;20;18;
28647;PMS5003;17137;51.494;-0.262;2023-12-07T00:33:40;20;18;
28647;PMS5003;17137;51.494;-0.262;2023-12-07T00:34:10;20;18;
28647;PMS5003;17137;51.494;-0.262;2023-12-07T00:34:40;20;18;
28647;PMS5003;17137;51.494;-0.262;2023-12-07T00:35:11;20;18;
28647;PMS5003;17137;51.494;-0.262;2023-12-07T00:35:41;20;18;
28647;PMS5003;17137;51.494;-0.262;2023-12-07T00:36:11;20;18;
28647;PMS5003;17137;51.494;-0.262;2023-12-07T00:36:41;21;20;
28647;PMS5003;17137;51.494;-0.262;2023-12-07T00:37:11;21;20;
28647;PMS5003;17137;51.494;-0.262;2023-12-07T00:37:42;21;20;
28647;PMS5003;17137;51.494;-0.262;2023-12-07T00:38:12;23;20;
28647;PMS5003;17137;51.494;-0.262;2023-12-07T00:38:42;23;20;
28647;PMS5003;17137;51.494;-0.262;2023-12-07T00:39:12;23;20;
28647;PMS5003;17137;51.494;-0.262;2023-12-07T00:39:43;23;21;
28647;PMS5003;17137;51.494;-0.262;2023-12-07T00:40:13;23;21;
28647;PMS5003;17137;51.494;-0.262;2023-12-07T00:40:43;23;21;
28647;PMS5003;17137;51.494;-0.262;2023-12-07T00:41:13;23;21;
28647;PMS5003;17137;51.494;-0.262;2023-12-07T00:41:44;23;21;
28647;PMS5003;17137;51.494;-0.262;2023-12-07T00:42:14;23;21;
28647;PMS5003;17137;51.494;-0.262;2023-12-07T00:42:44;21;21;
28647;PMS5003;17137;51.494;-0.262;2023-12-07T00:43:14;21;21;
28647;PMS5003;17137;51.494;-0.262;2023-12-07T00:43:44;21;21;
28647;PMS5003;17137;51.494;-0.262;2023-12-07T00:44:14;23;21;
28647;PMS5003;17137;51.494;-0.262;2023-12-07T00:44:45;23;21;
28647;PMS5003;17137;51.494;-0.262;2023-12-07T00:45:15;23;21;
28647;PMS5003;17137;51.494;-0.262;2023-12-07T00:45:45;24;23;
28647;PMS5003;17137;51.494;-0.262;2023-12-07T00:46:15;25;23;
28647;PMS5003;17137;51.494;-0.262;2023-12-07T00:46:46;25;24;
28647;PMS5003;17137;51.494;-0.262;2023-12-07T00:47:16;26;25;
28647;PMS5003;17137;51.494;-0.262;2023-12-07T00:47:46;25;24;
28647;PMS5003;17137;51.494;-0.262;2023-12-07T00:48:16;25;24;
28647;PMS5003;17137;51.494;-0.262;2023-12-07T00:48:46;25;24;
28647;PMS5003;17137;51.494;-0.262;2023-12-07T00:49:17;26;25;
28647;PMS5003;17137;51.494;-0.262;2023-12-07T00:49:47;29;25;
28647;PMS5003;17137;51.494;-0.262;2023-12-07T00:50:17;29;26;
28647;PMS5003;17137;51.494;-0.262;2023-12-07T00:50:48;26;25;
28647;PMS5003;17137;51.494;-0.262;2023-12-07T00:51:18;26;25;
28647;PMS5003;17137;51.494;-0.262;2023-12-07T00:51:48;26;25;
28647;PMS5003;17137;51.494;-0.262;2023-12-07T00:52:18;26;25;
28647;PMS5003;17137;51.494;-0.262;2023-12-07T00:52:48;26;25;
28647;PMS5003;17137;51.494;-0.262;2023-12-07T00:53:18;27;24;
28647;PMS5003;17137;51.494;-0.262;2023-12-07T00:53:49;28;24;
28647;PMS5003;17137;51.494;-0.262;2023-12-07T00:54:19;28;24;
28647;PMS5003;17137;51.494;-0.262;2023-12-07T00:54:49;28;24;
28647;PMS5003;17137;51.494;-0.262;2023-12-07T00:55:19;27;24;
28647;PMS5003;17137;51.494;-0.262;2023-12-07T00:55:49;27;24;
28647;PMS5003;17137;51.494;-0.262;2023-12-07T00:56:20;31;27;
28647;PMS5003;17137;51.494;-0.262;2023-12-07T00:56:50;31;27;
28647;PMS5003;17137;51.494;-0.262;2023-12-07T00:57:20;31;26;
28647;PMS5003;17137;51.494;-0.262;2023-12-07T00:57:50;30;27;
28647;PMS5003;17137;51.494;-0.262;2023-12-07T00:58:20;31;29;
28647;PMS5003;17137;51.494;-0.262;2023-12-07T00:58:50;31;28;
28647;PMS5003;17137;51.494;-0.262;2023-12-07T00:59:21;34;30;
28647;PMS5003;17137;51.494;-0.262;2023-12-07T00:59:51;34;31;
28647;PMS5003;17137;51.494;-0.262;2023-12-07T01:00:21;34;31;
28647;PMS5003;17137;51.494;-0.262;2023-12-07T01:00:51;35;32;
28647;PMS5003;17137;51.494;-0.262;2023-12-07T01:01:21;32;30;
28647;PMS5003;17137;51.494;-0.262;2023-12-07T01:01:52;32;30;
28647;PMS5003;17137;51.494;-0.262;2023-12-07T01:02:22;32;29;
28647;PMS5003;17137;51.494;-0.262;2023-12-07T01:02:52;32;29;
28647;PMS5003;17137;51.494;-0.262;2023-12-07T01:03:22;32;29;
28647;PMS5003;17137;51.494;-0.262;2023-12-07T01:03:52;29;26;
28647;PMS5003;17137;51.494;-0.262;2023-12-07T01:04:23;29;26;
28647;PMS5003;17137;51.494;-0.262;2023-12-07T01:04:53;29;26;
28647;PMS5003;17137;51.494;-0.262;2023-12-07T01:05:23;29;25;
28647;PMS5003;17137;51.494;-0.262;2023-12-07T01:05:53;29;25;
28647;PMS5003;17137;51.494;-0.262;2023-12-07T01:06:23;29;25;
28647;PMS5003;17137;51.494;-0.262;2023-12-07T01:06:54;29;25;
28647;PMS5003;17137;51.494;-0.262;2023-12-07T01:07:24;29;25;
28647;PMS5003;17137;51.494;-0.262;2023-12-07T01:07:54;29;25;
28647;PMS5003;17137;51.494;-0.262;2023-12-07T01:08:24;25;21;
28647;PMS5003;17137;51.494;-0.262;2023-12-07T01:08:54;25;21;
28647;PMS5003;17137;51.494;-0.262;2023-12-07T01:09:25;25;21;
28647;PMS5003;17137;51.494;-0.262;2023-12-07T01:09:55;24;20;
28647;PMS5003;17137;51.494;-0.262;2023-12-07T01:10:26;24;20;
28647;PMS5003;17137;51.494;-0.262;2023-12-07T01:10:56;24;20;
28647;PMS5003;17137;51.494;-0.262;2023-12-07T01:11:26;24;20;
28647;PMS5003;17137;51.494;-0.262;2023-12-07T01:11:56;24;20;
28647;PMS5003;17137;51.494;-0.262;2023-12-07T01:12:26;24;20;
28647;PMS5003;17137;51.494;-0.262;2023-12-07T01:12:57;24;19;
28647;PMS5003;17137;51.494;-0.262;2023-12-07T01:13:27;24;19;
28647;PMS5003;17137;51.494;-0.262;2023-12-07T01:13:57;24;19;
28647;PMS5003;17137;51.494;-0.262;2023-12-07T01:14:27;25;19;
28647;PMS5003;17137;51.494;-0.262;2023-12-07T01:14:58;25;19;
28647;PMS5003;17137;51.494;-0.262;2023-12-07T01:15:28;25;19;
28647;PMS5003;17137;51.494;-0.262;2023-12-07T01:16:03;27;18;
28647;PMS5003;17137;51.494;-0.262;2023-12-07T01:16:34;27;18;
28647;PMS5003;17137;51.494;-0.262;2023-12-07T01:17:04;27;18;
28647;PMS5003;17137;51.494;-0.262;2023-12-07T01:17:35;27;18;
28647;PMS5003;17137;51.494;-0.262;2023-12-07T01:18:05;27;18;
28647;PMS5003;17137;51.494;-0.262;2023-12-07T01:18:35;27;18;
28647;PMS5003;17137;51.494;-0.262;2023-12-07T01:19:05;30;21;
28647;PMS5003;17137;51.494;-0.262;2023-12-07T01:19:35;30;21;
28647;PMS5003;17137;51.494;-0.262;2023-12-07T01:20:06;30;21;
28647;PMS5003;17137;51.494;-0.262;2023-12-07T01:20:37;29;21;
28647;PMS5003;17137;51.494;-0.262;2023-12-07T01:21:07;29;21;
28647;PMS5003;17137;51.494;-0.262;2023-12-07T01:21:37;29;21;
28647;PMS5003;17137;51.494;-0.262;2023-12-07T01:22:07;29;21;
28647;PMS5003;17137;51.494;-0.262;2023-12-07T01:22:38;29;21;
28647;PMS5003;17137;51.494;-0.262;2023-12-07T01:23:09;29;21;
28647;PMS5003;17137;51.494;-0.262;2023-12-07T01:23:39;29;21;
28647;PMS5003;17137;51.494;-0.262;2023-12-07T01:24:09;29;21;
28647;PMS5003;17137;51.494;-0.262;2023-12-07T01:24:40;29;21;
28647;PMS5003;17137;51.494;-0.262;2023-12-07T01:25:10;29;21;
28647;PMS5003;17137;51.494;-0.262;2023-12-07T01:25:40;29;21;
28647;PMS5003;17137;51.494;-0.262;2023-12-07T01:26:10;29;21;
28647;PMS5003;17137;51.494;-0.262;2023-12-07T01:26:40;30;25;
28647;PMS5003;17137;51.494;-0.262;2023-12-07T01:27:10;29;24;
28647;PMS5003;17137;51.494;-0.262;2023-12-07T01:27:41;29;25;
28647;PMS5003;17137;51.494;-0.262;2023-12-07T01:28:11;27;25;
28647;PMS5003;17137;51.494;-0.262;2023-12-07T01:28:41;27;26;
28647;PMS5003;17137;51.494;-0.262;2023-12-07T01:29:11;27;26;
28647;PMS5003;17137;51.494;-0.262;2023-12-07T01:29:41;26;25;
28647;PMS5003;17137;51.494;-0.262;2023-12-07T01:30:12;27;25;
28647;PMS5003;17137;51.494;-0.262;2023-12-07T01:30:42;31;26;
28647;PMS5003;17137;51.494;-0.262;2023-12-07T01:31:12;31;27;
28647;PMS5003;17137;51.494;-0.262;2023-12-07T01:31:43;29;25;
28647;PMS5003;17137;51.494;-0.262;2023-12-07T01:32:13;29;25;
28647;PMS5003;17137;51.494;-0.262;2023-12-07T01:32:43;29;26;
28647;PMS5003;17137;51.494;-0.262;2023-12-07T01:33:13;29;26;
28647;PMS5003;17137;51.494;-0.262;2023-12-07T01:33:44;29;26;
28647;PMS5003;17137;51.494;-0.262;2023-12-07T01:34:14;30;26;
28647;PMS5003;17137;51.494;-0.262;2023-12-07T01:34:46;30;26;
28647;PMS5003;17137;51.494;-0.262;2023-12-07T01:35:17;30;26;
28647;PMS5003;17137;51.494;-0.262;2023-12-07T01:35:47;29;24;
28647;PMS5003;17137;51.494;-0.262;2023-12-07T01:36:17;29;24;
28647;PMS5003;17137;51.494;-0.262;2023-12-07T01:36:47;29;24;
28647;PMS5003;17137;51.494;-0.262;2023-12-07T01:37:18;30;25;
28647;PMS5003;17137;51.494;-0.262;2023-12-07T01:37:48;30;25;
28647;PMS5003;17137;51.494;-0.262;2023-12-07T01:38:18;30;25;
28647;PMS5003;17137;51.494;-0.262;2023-12-07T01:38:48;27;25;
28647;PMS5003;17137;51.494;-0.262;2023-12-07T01:39:18;27;25;
28647;PMS5003;17137;51.494;-0.262;2023-12-07T01:39:48;27;25;
28647;PMS5003;17137;51.494;-0.262;2023-12-07T01:40:19;25;24;
28647;PMS5003;17137;51.494;-0.262;2023-12-07T01:40:49;25;24;
28647;PMS5003;17137;51.494;-0.262;2023-12-07T01:41:19;25;24;
28647;PMS5003;17137;51.494;-0.262;2023-12-07T01:41:49;25;23;
28647;PMS5003;17137;51.494;-0.262;2023-12-07T01:42:20;25;23;
28647;PMS5003;17137;51.494;-0.262;2023-12-07T01:42:51;25;23;
28647;PMS5003;17137;51.494;-0.262;2023-12-07T01:43:22;24;23;
28647;PMS5003;17137;51.494;-0.262;2023-12-07T01:43:53;24;23;
28647;PMS5003;17137;51.494;-0.262;2023-12-07T01:44:23;24;23;
28647;PMS5003;17137;51.494;-0.262;2023-12-07T01:44:53;24;23;
28647;PMS5003;17137;51.494;-0.262;2023-12-07T01:45:24;24;23;
28647;PMS5003;17137;51.494;-0.262;2023-12-07T01:45:54;24;23;
28647;PMS5003;17137;51.494;-0.262;2023-12-07T01:46:27;23;20;
28647;PMS5003;17137;51.494;-0.262;2023-12-07T01:46:57;23;20;
28647;PMS5003;17137;51.494;-0.262;2023-12-07T01:47:27;23;20;
28647;PMS5003;17137;51.494;-0.262;2023-12-07T01:47:58;21;20;
28647;PMS5003;17137;51.494;-0.262;2023-12-07T01:48:28;21;20;
28647;PMS5003;17137;51.494;-0.262;2023-12-07T01:48:59;21;20;
28647;PMS5003;17137;51.494;-0.262;2023-12-07T01:49:30;20;20;
28647;PMS5003;17137;51.494;-0.262;2023-12-07T01:50:00;20;20;
28647;PMS5003;17137;51.494;-0.262;2023-12-07T01:50:32;20;20;
28647;PMS5003;17137;51.494;-0.262;2023-12-07T01:51:03;20;20;
28647;PMS5003;17137;51.494;-0.262;2023-12-07T01:51:34;20;20;
28647;PMS5003;17137;51.494;-0.262;2023-12-07T01:52:05;20;20;
28647;PMS5003;17137;51.494;-0.262;2023-12-07T01:52:36;18;18;
28647;PMS5003;17137;51.494;-0.262;2023-12-07T01:53:11;18;18;
28647;PMS5003;17137;51.494;-0.262;2023-12-07T01:53:41;18;18;
28647;PMS5003;17137;51.494;-0.262;2023-12-07T01:54:12;19;19;
28647;PMS5003;17137;51.494;-0.262;2023-12-07T01:54:42;19;19;
28647;PMS5003;17137;51.494;-0.262;2023-12-07T01:55:13;19;19;
28647;PMS5003;17137;51.494;-0.262;2023-12-07T01:55:44;19;18;
28647;PMS5003;17137;51.494;-0.262;2023-12-07T01:56:15;19;18;
28647;PMS5003;17137;51.494;-0.262;2023-12-07T01:56:46;19;18;
28647;PMS5003;17137;51.494;-0.262;2023-12-07T01:57:16;19;18;
28647;PMS5003;17137;51.494;-0.262;2023-12-07T01:57:46;19;18;
28647;PMS5003;17137;51.494;-0.262;2023-12-07T01:58:17;19;18;
28647;PMS5003;17137;51.494;-0.262;2023-12-07T01:58:49;19;19;
28647;PMS5003;17137;51.494;-0.262;2023-12-07T01:59:20;19;19;
28647;PMS5003;17137;51.494;-0.262;2023-12-07T01:59:50;19;19;
28647;PMS5003;17137;51.494;-0.262;2023-12-07T02:00:20;19;18;
28647;PMS5003;17137;51.494;-0.262;2023-12-07T02:00:51;19;18;
28647;PMS5003;17137;51.494;-0.262;2023-12-07T02:01:22;19;18;
28647;PMS5003;17137;51.494;-0.262;2023-12-07T02:01:52;19;18;
28647;PMS5003;17137;51.494;-0.262;2023-12-07T02:02:23;19;18;
28647;PMS5003;17137;51.494;-0.262;2023-12-07T02:02:53;19;18;
28647;PMS5003;17137;51.494;-0.262;2023-12-07T02:03:24;20;19;
28647;PMS5003;17137;51.494;-0.262;2023-12-07T02:03:56;20;19;
28647;PMS5003;17137;51.494;-0.262;2023-12-07T02:04:26;20;19;
28647;PMS5003;17137;51.494;-0.262;2023-12-07T02:04:57;20;19;
28647;PMS5003;17137;51.494;-0.262;2023-12-07T02:05:28;20;19;
28647;PMS5003;17137;51.494;-0.262;2023-12-07T02:05:59;20;19;
28647;PMS5003;17137;51.494;-0.262;2023-12-07T02:06:30;21;21;
28647;PMS5003;17137;51.494;-0.262;2023-12-07T02:07:01;21;21;
28647;PMS5003;17137;51.494;-0.262;2023-12-07T02:07:32;21;21;
28647;PMS5003;17137;51.494;-0.262;2023-12-07T02:08:04;23;21;
28647;PMS5003;17137;51.494;-0.262;2023-12-07T02:08:34;23;21;
28647;PMS5003;17137;51.494;-0.262;2023-12-07T02:09:04;23;21;
28647;PMS5003;17137;51.494;-0.262;2023-12-07T02:09:35;25;23;
28647;PMS5003;17137;51.494;-0.262;2023-12-07T02:10:07;25;23;
28647;PMS5003;17137;51.494;-0.262;2023-12-07T02:10:38;25;23;
28647;PMS5003;17137;51.494;-0.262;2023-12-07T02:11:08;25;24;
28647;PMS5003;17137;51.494;-0.262;2023-12-07T02:11:39;25;24;
28647;PMS5003;17137;51.494;-0.262;2023-12-07T02:12:09;25;24;
28647;PMS5003;17137;51.494;-0.262;2023-12-07T02:12:39;25;24;
28647;PMS5003;17137;51.494;-0.262;2023-12-07T02:13:10;25;24;
28647;PMS5003;17137;51.494;-0.262;2023-12-07T02:13:40;25;24;
28647;PMS5003;17137;51.494;-0.262;2023-12-07T02:14:11;26;24;
28647;PMS5003;17137;51.494;-0.262;2023-12-07T02:14:42;26;24;
28647;PMS5003;17137;51.494;-0.262;2023-12-07T02:15:12;26;24;
28647;PMS5003;17137;51.494;-0.262;2023-12-07T02:15:42;26;24;
28647;PMS5003;17137;51.494;-0.262;2023-12-07T02:16:13;26;24;
28647;PMS5003;17137;51.494;-0.262;2023-12-07T02:16:50;26;24;
28647;PMS5003;17137;51.494;-0.262;2023-12-07T02:17:29;29;25;
28647;PMS5003;17137;51.494;-0.262;2023-12-07T02:18:06;30;26;
28647;PMS5003;17137;51.494;-0.262;2023-12-07T02:18:44;31;27;
28647;PMS5003;17137;51.494;-0.262;2023-12-07T02:19:27;30;26;
28647;PMS5003;17137;51.494;-0.262;2023-12-07T02:20:16;31;27;
28647;PMS5003;17137;51.494;-0.262;2023-12-07T02:20:52;32;30;
28647;PMS5003;17137;51.494;-0.262;2023-12-07T02:21:30;32;28;
28647;PMS5003;17137;51.494;-0.262;2023-12-07T02:22:09;33;30;
28647;PMS5003;17137;51.494;-0.262;2023-12-07T02:22:47;32;31;
28647;PMS5003;17137;51.494;-0.262;2023-12-07T02:23:21;33;32;
28647;PMS5003;17137;51.494;-0.262;2023-12-07T02:23:54;32;31;
28647;PMS5003;17137;51.494;-0.262;2023-12-07T02:24:27;29;29;
28647;PMS5003;17137;51.494;-0.262;2023-12-07T02:25:05;30;30;
28647;PMS5003;17137;51.494;-0.262;2023-12-07T02:25:37;30;30;
28647;PMS5003;17137;51.494;-0.262;2023-12-07T02:26:14;30;30;
28647;PMS5003;17137;51.494;-0.262;2023-12-07T02:26:50;32;31;
28647;PMS5003;17137;51.494;-0.262;2023-12-07T02:27:32;32;31;
28647;PMS5003;17137;51.494;-0.262;2023-12-07T02:28:04;32;31;
28647;PMS5003;17137;51.494;-0.262;2023-12-07T02:28:34;31;30;
28647;PMS5003;17137;51.494;-0.262;2023-12-07T02:29:04;31;30;
28647;PMS5003;17137;51.494;-0.262;2023-12-07T02:29:34;31;30;
28647;PMS5003;17137;51.494;-0.262;2023-12-07T02:30:05;30;27;
28647;PMS5003;17137;51.494;-0.262;2023-12-07T02:30:37;30;27;
28647;PMS5003;17137;51.494;-0.262;2023-12-07T02:31:07;30;27;
28647;PMS5003;17137;51.494;-0.262;2023-12-07T02:31:37;30;29;
28647;PMS5003;17137;51.494;-0.262;2023-12-07T02:32:07;30;29;
28647;PMS5003;17137;51.494;-0.262;2023-12-07T02:32:38;30;29;
28647;PMS5003;17137;51.494;-0.262;2023-12-07T02:33:09;29;26;
28647;PMS5003;17137;51.494;-0.262;2023-12-07T02:33:40;29;26;
28647;PMS5003;17137;51.494;-0.262;2023-12-07T02:34:11;29;26;
28647;PMS5003;17137;51.494;-0.262;2023-12-07T02:34:41;27;26;
28647;PMS5003;17137;51.494;-0.262;2023-12-07T02:35:12;27;26;
28647;PMS5003;17137;51.494;-0.262;2023-12-07T02:35:42;27;26;
28647;PMS5003;17137;51.494;-0.262;2023-12-07T02:36:13;27;25;
28647;PMS5003;17137;51.494;-0.262;2023-12-07T02:36:51;27;25;
28647;PMS5003;17137;51.494;-0.262;2023-12-07T02:37:26;27;25;
28647;PMS5003;17137;51.494;-0.262;2023-12-07T02:37:59;29;25;
28647;PMS5003;17137;51.494;-0.262;2023-12-07T02:38:31;29;25;
28647;PMS5003;17137;51.494;-0.262;2023-12-07T02:39:02;29;25;
28647;PMS5003;17137;51.494;-0.262;2023-12-07T02:39:33;29;24;
28647;PMS5003;17137;51.494;-0.262;2023-12-07T02:40:04;29;24;
28647;PMS5003;17137;51.494;-0.262;2023-12-07T02:40:36;29;24;
28647;PMS5003;17137;51.494;-0.262;2023-12-07T02:41:08;29;22;
28647;PMS5003;17137;51.494;-0.262;2023-12-07T02:41:39;29;22;
28647;PMS5003;17137;51.494;-0.262;2023-12-07T02:42:10;29;23;
28647;PMS5003;17137;51.494;-0.262;2023-12-07T02:42:42;26;21;
28647;PMS5003;17137;51.494;-0.262;2023-12-07T02:43:13;26;21;
28647;PMS5003;17137;51.494;-0.262;2023-12-07T02:43:45;26;21;
28647;PMS5003;17137;51.494;-0.262;2023-12-07T02:44:15;25;20;
28647;PMS5003;17137;51.494;-0.262;2023-12-07T02:44:46;25;20;
28647;PMS5003;17137;51.494;-0.262;2023-12-07T02:45:16;25;20;
28647;PMS5003;17137;51.494;-0.262;2023-12-07T02:45:46;26;21;
28647;PMS5003;17137;51.494;-0.262;2023-12-07T02:46:17;26;20;
28647;PMS5003;17137;51.494;-0.262;2023-12-07T02:46:48;26;21;
28647;PMS5003;17137;51.494;-0.262;2023-12-07T02:47:19;29;24;
28647;PMS5003;17137;51.494;-0.262;2023-12-07T02:47:49;31;24;
28647;PMS5003;17137;51.494;-0.262;2023-12-07T02:48:20;30;25;
28647;PMS5003;17137;51.494;-0.262;2023-12-07T02:48:50;30;26;
28647;PMS5003;17137;51.494;-0.262;2023-12-07T02:49:20;29;27;
28647;PMS5003;17137;51.494;-0.262;2023-12-07T02:49:50;33;30;
28647;PMS5003;17137;51.494;-0.262;2023-12-07T02:50:21;33;30;
28647;PMS5003;17137;51.494;-0.262;2023-12-07T02:50:51;31;27;
28647;PMS5003;17137;51.494;-0.262;2023-12-07T02:51:21;35;29;
28647;PMS5003;17137;51.494;-0.262;2023-12-07T02:51:51;37;31;
28647;PMS5003;17137;51.494;-0.262;2023-12-07T02:52:22;37;31;
28647;PMS5003;17137;51.494;-0.262;2023-12-07T02:52:52;37;31;
28647;PMS5003;17137;51.494;-0.262;2023-12-07T02:53:22;36;30;
28647;PMS5003;17137;51.494;-0.262;2023-12-07T02:53:53;35;29;
28647;PMS5003;17137;51.494;-0.262;2023-12-07T02:54:23;33;29;
28647;PMS5003;17137;51.494;-0.262;2023-12-07T02:54:53;33;29;
28647;PMS5003;17137;51.494;-0.262;2023-12-07T02:55:23;33;29;
28647;PMS5003;17137;51.494;-0.262;2023-12-07T02:55:53;31;27;
28647;PMS5003;17137;51.494;-0.262;2023-12-07T02:56:24;34;29;
28647;PMS5003;17137;51.494;-0.262;2023-12-07T02:56:54;36;30;
28647;PMS5003;17137;51.494;-0.262;2023-12-07T02:57:24;32;27;
28647;PMS5003;17137;51.494;-0.262;2023-12-07T02:57:54;31;25;
28647;PMS5003;17137;51.494;-0.262;2023-12-07T02:58:25;30;25;
28647;PMS5003;17137;51.494;-0.262;2023-12-07T02:58:55;30;25;
28647;PMS5003;17137;51.494;-0.262;2023-12-07T02:59:25;30;25;
28647;PMS5003;17137;51.494;-0.262;2023-12-07T02:59:55;30;25;
28647;PMS5003;17137;51.494;-0.262;2023-12-07T03:00:26;30;25;
28647;PMS5003;17137;51.494;-0.262;2023-12-07T03:00:56;32;25;
28647;PMS5003;17137;51.494;-0.262;2023-12-07T03:01:26;32;25;
28647;PMS5003;17137;51.494;-0.262;2023-12-07T03:01:56;32;25;
28647;PMS5003;17137;51.494;-0.262;2023-12-07T03:02:27;32;25;
28647;PMS5003;17137;51.494;-0.262;2023-12-07T03:02:57;32;25;
28647;PMS5003;17137;51.494;-0.262;2023-12-07T03:03:27;32;25;
28647;PMS5003;17137;51.494;-0.262;2023-12-07T03:03:57;30;24;
28647;PMS5003;17137;51.494;-0.262;2023-12-07T03:04:27;30;24;
28647;PMS5003;17137;51.494;-0.262;2023-12-07T03:04:58;30;24;
28647;PMS5003;17137;51.494;-0.262;2023-12-07T03:05:28;27;23;
28647;PMS5003;17137;51.494;-0.262;2023-12-07T03:05:58;27;23;
28647;PMS5003;17137;51.494;-0.262;2023-12-07T03:06:28;27;23;
28647;PMS5003;17137;51.494;-0.262;2023-12-07T03:06:58;26;21;
28647;PMS5003;17137;51.494;-0.262;2023-12-07T03:07:29;26;21;
28647;PMS5003;17137;51.494;-0.262;2023-12-07T03:07:59;26;21;
28647;PMS5003;17137;51.494;-0.262;2023-12-07T03:08:29;24;21;
28647;PMS5003;17137;51.494;-0.262;2023-12-07T03:08:59;24;21;
28647;PMS5003;17137;51.494;-0.262;2023-12-07T03:09:29;24;21;
28647;PMS5003;17137;51.494;-0.262;2023-12-07T03:10:00;23;20;
28647;PMS5003;17137;51.494;-0.262;2023-12-07T03:10:31;23;20;
28647;PMS5003;17137;51.494;-0.262;2023-12-07T03:11:01;22;20;
28647;PMS5003;17137;51.494;-0.262;2023-12-07T03:11:31;22;20;
28647;PMS5003;17137;51.494;-0.262;2023-12-07T03:12:01;22;20;
28647;PMS5003;17137;51.494;-0.262;2023-12-07T03:12:32;22;20;
28647;PMS5003;17137;51.494;-0.262;2023-12-07T03:13:02;23;21;
28647;PMS5003;17137;51.494;-0.262;2023-12-07T03:13:32;23;21;
28647;PMS5003;17137;51.494;-0.262;2023-12-07T03:14:02;23;21;
28647;PMS5003;17137;51.494;-0.262;2023-12-07T03:14:32;21;19;
28647;PMS5003;17137;51.494;-0.262;2023-12-07T03:15:03;21;19;
28647;PMS5003;17137;51.494;-0.262;2023-12-07T03:15:34;21;19;
28647;PMS5003;17137;51.494;-0.262;2023-12-07T03:16:06;19;19;
28647;PMS5003;17137;51.494;-0.262;2023-12-07T03:16:38;19;19;
28647;PMS5003;17137;51.494;-0.262;2023-12-07T03:17:08;19;19;
28647;PMS5003;17137;51.494;-0.262;2023-12-07T03:17:38;19;19;
28647;PMS5003;17137;51.494;-0.262;2023-12-07T03:18:09;19;19;
28647;PMS5003;17137;51.494;-0.262;2023-12-07T03:18:39;19;19;
28647;PMS5003;17137;51.494;-0.262;2023-12-07T03:19:09;19;19;
28647;PMS5003;17137;51.494;-0.262;2023-12-07T03:19:39;19;19;
28647;PMS5003;17137;51.494;-0.262;2023-12-07T03:20:11;19;19;
28647;PMS5003;17137;51.494;-0.262;2023-12-07T03:20:42;19;19;
28647;PMS5003;17137;51.494;-0.262;2023-12-07T03:21:12;19;19;